createdAt,value
2022-10-04T00:00:38.479Z,101821.41
2022-10-04T00:03:18.579Z,101818.72
2022-10-04T00:05:49.954Z,101816.97
2022-10-04T00:08:32.953Z,101821.38
2022-10-04T00:11:13.497Z,101824.97
2022-10-04T00:13:41.522Z,101825.81
2022-10-04T00:16:22.406Z,101817.81
2022-10-04T00:18:49.235Z,101801.84
2022-10-04T00:21:18.539Z,101810.72
2022-10-04T00:23:46.441Z,101806.28
2022-10-04T00:26:27.616Z,101803.63
2022-10-04T00:28:55.510Z,101792.03
2022-10-04T00:31:23.188Z,101804.50
2022-10-04T00:33:52.959Z,101799.16
2022-10-04T00:36:25.762Z,101792.06
2022-10-04T00:39:04.956Z,101791.16
2022-10-04T00:41:41.016Z,101792.97
2022-10-04T00:44:34.751Z,101786.72
2022-10-04T00:47:03.329Z,101787.63
2022-10-04T00:49:33.415Z,101783.19
2022-10-04T00:52:08.009Z,101784.97
2022-10-04T00:54:41.398Z,101776.06
2022-10-04T00:57:15.871Z,101778.75
2022-10-04T00:59:49.023Z,101781.41
2022-10-04T01:02:23.061Z,101776.94
2022-10-04T01:05:11.000Z,101782.28
2022-10-04T01:07:55.194Z,101775.19
2022-10-04T01:10:39.282Z,101770.75
2022-10-04T01:13:21.118Z,101769.84
2022-10-04T01:16:12.366Z,101760.97
2022-10-04T01:18:39.446Z,101754.72
2022-10-04T01:21:18.581Z,101757.41
2022-10-04T01:23:47.831Z,101744.97
2022-10-04T01:26:26.854Z,101737.88
2022-10-04T01:28:54.245Z,101731.66
2022-10-04T01:31:21.344Z,101729.88
2022-10-04T01:33:48.556Z,101736.97
2022-10-04T01:36:22.226Z,101736.97
2022-10-04T01:38:52.102Z,101747.63
2022-10-04T01:41:22.090Z,101735.22
2022-10-04T01:43:50.592Z,101742.31
2022-10-04T01:46:21.304Z,101743.19
2022-10-04T01:48:48.368Z,101736.09
2022-10-04T01:51:20.146Z,101730.75
2022-10-04T01:53:49.527Z,101736.97
2022-10-04T01:56:21.653Z,101736.97
2022-10-04T01:58:59.768Z,101741.41
2022-10-04T02:01:31.662Z,101739.63
2022-10-04T02:04:02.494Z,101741.41
2022-10-04T02:06:30.264Z,101734.31
2022-10-04T02:08:58.205Z,101715.66
2022-10-04T02:11:30.197Z,101720.97
2022-10-04T02:13:57.838Z,101720.13
2022-10-04T02:16:26.375Z,101727.19
2022-10-04T02:18:54.204Z,101719.19
2022-10-04T02:21:22.041Z,101717.41
2022-10-04T02:23:49.129Z,101721.88
2022-10-04T02:26:16.144Z,101716.56
2022-10-04T02:28:45.499Z,101711.22
2022-10-04T02:31:30.942Z,101715.63
2022-10-04T02:33:58.610Z,101701.44
2022-10-04T02:36:28.001Z,101700.56
2022-10-04T02:39:03.823Z,101714.75
2022-10-04T02:41:33.095Z,101699.66
2022-10-04T02:44:08.525Z,101696.97
2022-10-04T02:46:47.010Z,101702.31
2022-10-04T02:49:29.520Z,101692.53
2022-10-04T02:52:06.105Z,101686.31
2022-10-04T02:54:43.076Z,101678.34
2022-10-04T02:57:19.295Z,101681.00
2022-10-04T02:59:46.600Z,101684.56
2022-10-04T03:02:30.115Z,101679.22
2022-10-04T03:05:05.890Z,101681.00
2022-10-04T03:07:33.574Z,101686.31
2022-10-04T03:10:01.053Z,101689.00
2022-10-04T03:12:27.832Z,101686.31
2022-10-04T03:14:55.114Z,101682.78
2022-10-04T03:17:22.173Z,101680.09
2022-10-04T03:19:49.325Z,101679.22
2022-10-04T03:22:16.865Z,101682.78
2022-10-04T03:24:46.932Z,101679.22
2022-10-04T03:27:20.608Z,101675.66
2022-10-04T03:29:47.790Z,101667.66
2022-10-04T03:32:17.036Z,101668.56
2022-10-04T03:34:52.527Z,101673.91
2022-10-04T03:37:21.536Z,101673.91
2022-10-04T03:39:50.486Z,101669.44
2022-10-04T03:42:19.250Z,101665.00
2022-10-04T03:44:46.958Z,101670.31
2022-10-04T03:47:25.832Z,101667.66
2022-10-04T03:49:54.884Z,101664.13
2022-10-04T03:52:26.612Z,101669.47
2022-10-04T03:54:55.168Z,101665.00
2022-10-04T03:57:22.718Z,101663.25
2022-10-04T03:59:50.752Z,101658.78
2022-10-04T04:02:34.190Z,101652.56
2022-10-04T04:05:15.956Z,101657.91
2022-10-04T04:07:46.208Z,101656.13
2022-10-04T04:10:24.066Z,101654.34
2022-10-04T04:13:07.335Z,101656.16
2022-10-04T04:15:34.451Z,101653.47
2022-10-04T04:18:04.359Z,101655.25
2022-10-04T04:20:34.763Z,101655.25
2022-10-04T04:23:10.982Z,101655.25
2022-10-04T04:25:39.518Z,101655.22
2022-10-04T04:28:25.485Z,101655.22
2022-10-04T04:30:57.521Z,101657.91
2022-10-04T04:33:29.429Z,101650.81
2022-10-04T04:35:58.885Z,101636.59
2022-10-04T04:38:26.254Z,101646.34
2022-10-04T04:40:57.284Z,101642.81
2022-10-04T04:43:27.781Z,101647.25
2022-10-04T04:46:15.097Z,101641.94
2022-10-04T04:48:45.063Z,101635.72
2022-10-04T04:51:19.687Z,101635.72
2022-10-04T04:53:47.658Z,101640.16
2022-10-04T04:56:19.180Z,101643.69
2022-10-04T04:58:47.779Z,101641.03
2022-10-04T05:01:27.056Z,101647.25
2022-10-04T05:04:17.505Z,101647.25
2022-10-04T05:06:49.868Z,101645.47
2022-10-04T05:09:30.318Z,101649.91
2022-10-04T05:12:23.599Z,101656.13
2022-10-04T05:14:52.189Z,101653.50
2022-10-04T05:17:21.381Z,101656.13
2022-10-04T05:19:48.428Z,101659.69
2022-10-04T05:22:20.292Z,101659.69
2022-10-04T05:24:49.028Z,101659.69
2022-10-04T05:27:18.170Z,101657.03
2022-10-04T05:30:19.826Z,101647.28
2022-10-04T05:32:55.609Z,101654.38
2022-10-04T05:35:22.786Z,101655.25
2022-10-04T05:38:09.537Z,101649.03
2022-10-04T05:40:47.250Z,101648.13
2022-10-04T05:43:33.206Z,101648.16
2022-10-04T05:46:21.165Z,101650.81
2022-10-04T05:48:52.983Z,101641.03
2022-10-04T05:51:20.734Z,101639.28
2022-10-04T05:53:48.369Z,101641.03
2022-10-04T05:56:30.384Z,101640.16
2022-10-04T05:59:22.849Z,101638.38
2022-10-04T06:02:20.194Z,101642.81
2022-10-04T06:04:56.362Z,101647.25
2022-10-04T06:07:30.366Z,101653.47
2022-10-04T06:09:59.938Z,101649.91
2022-10-04T06:12:52.014Z,101656.13
2022-10-04T06:15:41.277Z,101651.69
2022-10-04T06:18:33.148Z,101655.25
2022-10-04T06:21:21.617Z,101659.69
2022-10-04T06:23:57.691Z,101657.00
2022-10-04T06:26:33.194Z,101660.56
2022-10-04T06:29:15.628Z,101658.78
2022-10-04T06:32:08.935Z,101664.13
2022-10-04T06:34:51.815Z,101671.22
2022-10-04T06:37:39.692Z,101668.56
2022-10-04T06:40:28.177Z,101668.56
2022-10-04T06:43:18.207Z,101670.34
2022-10-04T06:46:03.775Z,101677.44
2022-10-04T06:49:08.097Z,101670.34
2022-10-04T06:52:04.045Z,101675.69
2022-10-04T06:54:45.404Z,101679.22
2022-10-04T06:57:40.164Z,101682.75
2022-10-04T07:00:22.230Z,101676.56
2022-10-04T07:02:53.280Z,101681.00
2022-10-04T07:05:46.255Z,101681.00
2022-10-04T07:08:36.120Z,101681.00
2022-10-04T07:14:17.511Z,101687.19
2022-10-04T07:17:03.087Z,101680.94
2022-10-04T07:19:47.860Z,101679.16
2022-10-04T07:22:38.033Z,101666.66
2022-10-04T07:25:15.466Z,101661.28
2022-10-04T07:28:15.777Z,101662.16
2022-10-04T07:31:06.774Z,101670.16
2022-10-04T07:33:36.466Z,101668.34
2022-10-04T07:36:19.802Z,101666.47
2022-10-04T07:39:01.896Z,101661.09
2022-10-04T07:42:16.349Z,101668.16
2022-10-04T07:44:54.933Z,101663.69
2022-10-04T07:47:27.791Z,101670.75
2022-10-04T07:50:29.254Z,101671.59
2022-10-04T07:56:27.221Z,101676.78
2022-10-04T07:59:23.251Z,101683.84
2022-10-04T08:02:15.858Z,101672.25
2022-10-04T08:05:48.114Z,101672.19
2022-10-04T08:08:39.415Z,101681.94
2022-10-04T08:11:43.234Z,101673.00
2022-10-04T08:14:37.709Z,101668.53
2022-10-04T08:17:15.335Z,101664.13
2022-10-04T08:19:51.991Z,101665.03
2022-10-04T08:22:19.202Z,101670.38
2022-10-04T08:25:30.732Z,101661.50
2022-10-04T08:28:44.638Z,101662.38
2022-10-04T08:31:22.690Z,101661.53
2022-10-04T08:33:52.634Z,101669.56
2022-10-04T08:36:47.333Z,101662.38
2022-10-04T08:39:22.749Z,101657.03
2022-10-04T08:42:11.664Z,101664.13
2022-10-04T08:45:01.886Z,101664.09
2022-10-04T08:48:17.709Z,101664.00
2022-10-04T08:51:12.653Z,101664.84
2022-10-04T08:53:49.008Z,101665.69
2022-10-04T08:56:51.572Z,101669.22
2022-10-04T09:00:02.918Z,101667.38
2022-10-04T09:02:30.114Z,101680.69
2022-10-04T09:05:09.040Z,101674.38
2022-10-04T09:08:17.296Z,101669.03
2022-10-04T09:10:56.203Z,101661.84
2022-10-04T09:13:51.022Z,101664.47
2022-10-04T09:16:46.771Z,101663.50
2022-10-04T09:19:33.604Z,101655.41
2022-10-04T09:22:26.758Z,101653.56
2022-10-04T09:25:15.347Z,101659.75
2022-10-04T09:28:20.751Z,101655.25
2022-10-04T09:31:04.771Z,101663.25
2022-10-04T09:33:53.825Z,101657.84
2022-10-04T09:36:54.496Z,101653.38
2022-10-04T09:39:43.464Z,101649.75
2022-10-04T09:42:32.065Z,101641.72
2022-10-04T09:45:33.130Z,101644.34
2022-10-04T09:48:28.133Z,101639.88
2022-10-04T09:51:19.767Z,101646.06
2022-10-04T09:54:17.576Z,101638.00
2022-10-04T09:57:09.157Z,101632.59
2022-10-04T10:00:03.236Z,101637.00
2022-10-04T10:02:47.671Z,101632.53
2022-10-04T10:05:50.888Z,101637.84
2022-10-04T10:08:43.890Z,101636.88
2022-10-04T10:11:56.519Z,101627.00
2022-10-04T10:14:59.959Z,101630.56
2022-10-04T10:18:02.197Z,101630.56
2022-10-04T10:20:35.155Z,101629.63
2022-10-04T10:23:51.474Z,101635.84
2022-10-04T10:29:41.437Z,101634.00
2022-10-04T10:36:34.653Z,101633.94
2022-10-04T10:39:34.053Z,101622.28
2022-10-04T10:42:48.702Z,101624.94
2022-10-04T10:45:55.195Z,101619.56
2022-10-04T10:48:33.550Z,101628.50
2022-10-04T10:51:11.164Z,101607.91
2022-10-04T10:53:53.147Z,101611.44
2022-10-04T10:57:02.162Z,101609.59
2022-10-04T10:59:49.938Z,101606.03
2022-10-04T11:02:49.580Z,101605.06
2022-10-04T11:05:35.082Z,101605.00
2022-10-04T11:08:30.046Z,101599.63
2022-10-04T11:11:06.618Z,101598.69
2022-10-04T11:14:12.574Z,101585.25
2022-10-04T11:17:14.335Z,101583.47
2022-10-04T11:20:11.158Z,101583.41
2022-10-04T11:22:50.063Z,101595.91
2022-10-04T11:25:36.245Z,101591.47
2022-10-04T11:28:26.668Z,101586.97
2022-10-04T11:31:02.899Z,101589.66
2022-10-04T11:33:39.535Z,101580.69
2022-10-04T11:36:32.306Z,101577.94
2022-10-04T11:39:14.379Z,101564.50
2022-10-04T11:41:55.190Z,101562.66
2022-10-04T11:44:34.330Z,101558.16
2022-10-04T11:47:39.267Z,101558.09
2022-10-04T11:50:23.904Z,101566.06
2022-10-04T11:53:14.944Z,101564.25
2022-10-04T11:56:37.808Z,101567.69
2022-10-04T11:59:18.267Z,101566.78
2022-10-04T12:02:09.239Z,101561.34
2022-10-04T12:05:08.451Z,101555.91
2022-10-04T12:08:03.199Z,101550.44
2022-10-04T12:10:43.818Z,101558.47
2022-10-04T12:13:44.664Z,101555.72
2022-10-04T12:16:50.749Z,101536.03
2022-10-04T12:19:42.939Z,101537.75
2022-10-04T12:22:22.924Z,101531.47
2022-10-04T12:25:44.162Z,101524.25
2022-10-04T12:28:46.382Z,101521.47
2022-10-04T12:31:54.799Z,101507.06
2022-10-04T12:34:49.231Z,101499.88
2022-10-04T12:37:25.965Z,101501.59
2022-10-04T12:40:05.121Z,101490.78
2022-10-04T12:42:54.367Z,101488.03
2022-10-04T12:45:38.587Z,101485.31
2022-10-04T12:48:17.555Z,101486.16
2022-10-04T12:50:55.308Z,101477.16
2022-10-04T12:53:37.098Z,101489.63
2022-10-04T12:56:09.053Z,101477.94
2022-10-04T12:58:55.970Z,101468.03
2022-10-04T13:01:38.114Z,101471.56
2022-10-04T13:04:29.206Z,101471.47
2022-10-04T13:07:21.392Z,101474.09
2022-10-04T13:10:24.575Z,101474.88
2022-10-04T13:13:23.371Z,101463.22
2022-10-04T13:18:53.234Z,101465.72
2022-10-04T13:21:38.793Z,101469.19
2022-10-04T13:24:20.649Z,101460.19
2022-10-04T13:27:08.223Z,101452.94
2022-10-04T13:29:49.361Z,101452.84
2022-10-04T13:32:27.129Z,101442.97
2022-10-04T13:35:02.842Z,101443.75
2022-10-04T13:37:36.360Z,101439.16
2022-10-04T13:40:26.841Z,101442.56
2022-10-04T13:42:56.682Z,101447.88
2022-10-04T13:45:45.310Z,101440.59
2022-10-04T13:48:34.736Z,101443.09
2022-10-04T13:51:24.380Z,101444.84
2022-10-04T13:54:13.069Z,101432.28
2022-10-04T13:56:58.745Z,101440.28
2022-10-04T13:59:35.544Z,101433.97
2022-10-04T14:02:15.865Z,101435.72
2022-10-04T14:05:05.708Z,101436.56
2022-10-04T14:07:41.175Z,101432.09
2022-10-04T14:10:13.771Z,101430.28
2022-10-04T14:13:18.136Z,101424.00
2022-10-04T14:16:03.744Z,101424.00
2022-10-04T14:18:52.421Z,101425.72
2022-10-04T14:21:52.576Z,101410.59
2022-10-04T14:24:49.876Z,101412.38
2022-10-04T14:27:22.326Z,101402.56
2022-10-04T14:30:24.518Z,101384.66
2022-10-04T14:33:15.214Z,101380.25
2022-10-04T14:36:10.042Z,101377.59
2022-10-04T14:38:58.160Z,101374.91
2022-10-04T14:42:02.638Z,101373.22
2022-10-04T14:44:35.610Z,101384.00
2022-10-04T14:47:25.675Z,101375.03
2022-10-04T14:50:14.242Z,101374.16
2022-10-04T14:53:00.806Z,101384.91
2022-10-04T14:55:53.688Z,101378.72
2022-10-04T14:58:41.182Z,101368.06
2022-10-04T15:01:20.575Z,101366.31
2022-10-04T15:04:14.052Z,101372.59
2022-10-04T15:06:48.929Z,101371.78
2022-10-04T15:09:27.059Z,101381.63
2022-10-04T15:12:25.372Z,101380.78
2022-10-04T15:15:13.314Z,101386.16
2022-10-04T15:17:55.389Z,101381.78
2022-10-04T15:20:25.156Z,101372.00
2022-10-04T15:23:15.883Z,101378.31
2022-10-04T15:25:42.554Z,101381.06
2022-10-04T15:28:38.684Z,101377.63
2022-10-04T15:31:20.721Z,101383.13
2022-10-04T15:34:06.459Z,101379.66
2022-10-04T15:36:57.672Z,101375.28
2022-10-04T15:39:58.143Z,101372.69
2022-10-04T15:42:38.496Z,101366.47
2022-10-04T15:45:19.691Z,101366.50
2022-10-04T15:48:05.237Z,101361.19
2022-10-04T15:51:18.840Z,101349.59
2022-10-04T15:54:09.511Z,101337.13
2022-10-04T15:57:31.258Z,101326.47
2022-10-04T16:00:21.223Z,101337.28
2022-10-04T16:03:07.718Z,101345.38
2022-10-04T16:05:42.504Z,101350.81
2022-10-04T16:08:19.354Z,101353.56
2022-10-04T16:11:14.134Z,101363.44
2022-10-04T16:14:02.815Z,101359.06
2022-10-04T16:16:48.513Z,101362.72
2022-10-04T16:19:48.796Z,101363.72
2022-10-04T16:22:28.166Z,101358.50
2022-10-04T16:25:40.289Z,101357.75
2022-10-04T16:28:39.475Z,101356.09
2022-10-04T16:31:56.517Z,101348.13
2022-10-04T16:34:33.601Z,101349.19
2022-10-04T16:37:24.109Z,101350.22
2022-10-04T16:40:05.559Z,101343.19
2022-10-04T16:42:45.836Z,101340.63
2022-10-04T16:45:49.741Z,101339.03
2022-10-04T16:48:28.152Z,101340.03
2022-10-04T16:51:13.320Z,101344.69
2022-10-04T16:54:04.640Z,101347.50
2022-10-04T16:56:35.065Z,101344.03
2022-10-04T16:59:11.452Z,101353.09
2022-10-04T17:01:56.737Z,101351.38
2022-10-04T17:04:35.934Z,101355.13
2022-10-04T17:07:24.274Z,101354.34
2022-10-04T17:10:28.422Z,101355.38
2022-10-04T17:13:14.374Z,101348.34
2022-10-04T17:15:48.759Z,101338.63
2022-10-04T17:18:19.612Z,101350.34
2022-10-04T17:20:58.952Z,101352.22
2022-10-04T17:23:44.449Z,101348.75
2022-10-04T17:26:48.965Z,101352.44
2022-10-04T17:29:15.790Z,101357.03
2022-10-04T17:32:03.816Z,101354.44
2022-10-04T17:34:30.511Z,101360.75
2022-10-04T17:37:11.304Z,101351.84
2022-10-04T17:40:13.510Z,101351.94
2022-10-04T17:42:46.205Z,101357.38
2022-10-04T17:45:37.128Z,101349.41
2022-10-04T17:48:47.920Z,101352.16
2022-10-04T17:51:53.123Z,101359.44
2022-10-04T17:54:45.585Z,101356.78
2022-10-04T17:57:25.051Z,101343.47
2022-10-04T17:59:57.883Z,101351.56
2022-10-04T18:02:45.855Z,101351.63
2022-10-04T18:05:21.057Z,101348.09
2022-10-04T18:07:54.201Z,101344.59
2022-10-04T18:10:24.818Z,101343.75
2022-10-04T18:13:03.679Z,101342.03
2022-10-04T18:15:36.455Z,101344.72
2022-10-04T18:18:21.577Z,101346.56
2022-10-04T18:20:54.310Z,101334.13
2022-10-04T18:23:27.229Z,101341.28
2022-10-04T18:26:18.144Z,101337.75
2022-10-04T18:28:47.404Z,101336.88
2022-10-04T18:31:29.223Z,101336.00
2022-10-04T18:34:29.229Z,101338.72
2022-10-04T18:37:06.293Z,101342.31
2022-10-04T18:39:44.714Z,101345.03
2022-10-04T18:42:20.227Z,101344.16
2022-10-04T18:44:59.048Z,101338.81
2022-10-04T18:47:33.556Z,101341.53
2022-10-04T18:50:04.839Z,101339.78
2022-10-04T18:52:57.398Z,101361.19
2022-10-04T18:55:46.006Z,101357.66
2022-10-04T18:58:43.141Z,101356.81
2022-10-04T19:02:06.666Z,101357.72
2022-10-04T19:04:45.702Z,101359.56
2022-10-04T19:07:58.381Z,101354.22
2022-10-04T19:10:33.319Z,101350.66
2022-10-04T19:13:18.584Z,101340.91
2022-10-04T19:16:11.040Z,101346.28
2022-10-04T19:19:06.730Z,101351.66
2022-10-04T19:21:54.953Z,101349.03
2022-10-04T19:24:33.929Z,101341.94
2022-10-04T19:27:27.884Z,101342.88
2022-10-04T19:30:12.917Z,101345.59
2022-10-04T19:32:47.641Z,101337.59
2022-10-04T19:35:26.633Z,101339.38
2022-10-04T19:38:03.826Z,101339.41
2022-10-04T19:40:48.497Z,101342.09
2022-10-04T19:43:20.346Z,101349.22
2022-10-04T19:46:11.692Z,101346.59
2022-10-04T19:48:59.534Z,101358.16
2022-10-04T19:51:38.428Z,101374.19
2022-10-04T19:54:38.358Z,101379.53
2022-10-04T19:57:12.373Z,101390.22
2022-10-04T19:59:41.714Z,101396.47
2022-10-04T20:02:17.625Z,101392.00
2022-10-04T20:08:47.678Z,101381.31
2022-10-04T20:11:18.946Z,101364.41
2022-10-04T20:14:13.701Z,101356.41
2022-10-04T20:16:46.912Z,101351.06
2022-10-04T20:19:40.059Z,101357.28
2022-10-04T20:22:12.859Z,101345.75
2022-10-04T20:24:39.806Z,101338.63
2022-10-04T20:27:10.819Z,101347.53
2022-10-04T20:29:37.590Z,101351.16
2022-10-04T20:32:08.538Z,101344.03
2022-10-04T20:34:38.343Z,101346.69
2022-10-04T20:37:09.245Z,101343.19
2022-10-04T20:39:43.215Z,101346.75
2022-10-04T20:42:19.707Z,101353.88
2022-10-04T20:44:58.214Z,101345.91
2022-10-04T20:47:49.112Z,101345.91
2022-10-04T20:50:26.758Z,101345.97
2022-10-04T20:52:57.265Z,101341.50
2022-10-04T20:55:28.116Z,101338.88
2022-10-04T20:58:00.674Z,101339.78
2022-10-04T21:00:29.306Z,101338.03
2022-10-04T21:03:13.156Z,101335.38
2022-10-04T21:05:39.981Z,101338.06
2022-10-04T21:08:24.257Z,101351.44
2022-10-04T21:11:06.577Z,101356.78
2022-10-04T21:14:00.233Z,101363.06
2022-10-04T21:16:47.997Z,101364.84
2022-10-04T21:19:33.515Z,101364.00
2022-10-04T21:22:05.144Z,101368.44
2022-10-04T21:24:35.703Z,101364.03
2022-10-04T21:27:03.214Z,101359.59
2022-10-04T21:29:30.087Z,101358.75
2022-10-04T21:31:57.662Z,101345.41
2022-10-04T21:34:51.471Z,101342.78
2022-10-04T21:37:11.474Z,101342.78
2022-10-04T21:39:38.263Z,101327.66
2022-10-04T21:42:05.357Z,101322.31
2022-10-04T21:44:32.159Z,101309.91
2022-10-04T21:46:58.981Z,101300.13
2022-10-04T21:49:26.198Z,101300.13
2022-10-04T21:51:53.009Z,101305.44
2022-10-04T21:54:19.831Z,101301.84
2022-10-04T21:56:46.879Z,101308.97
2022-10-04T21:59:14.065Z,101310.75
2022-10-04T22:01:40.874Z,101305.41
2022-10-04T22:04:07.654Z,101308.94
2022-10-04T22:06:34.475Z,101304.47
2022-10-04T22:09:01.250Z,101301.81
2022-10-04T22:11:27.995Z,101308.91
2022-10-04T22:13:54.719Z,101308.03
2022-10-04T22:16:21.561Z,101309.78
2022-10-04T22:18:48.352Z,101310.66
2022-10-04T22:21:15.101Z,101306.22
2022-10-04T22:23:43.189Z,101308.00
2022-10-04T22:26:21.850Z,101324.88
2022-10-04T22:28:53.589Z,101326.66
2022-10-04T22:31:28.747Z,101326.66
2022-10-04T22:33:56.210Z,101332.91
2022-10-04T22:36:24.944Z,101332.06
2022-10-04T22:39:08.858Z,101330.28
2022-10-04T22:41:38.623Z,101323.19
2022-10-04T22:44:16.769Z,101322.31
2022-10-04T22:46:46.141Z,101324.97
2022-10-04T22:49:15.810Z,101318.78
2022-10-04T22:51:44.350Z,101319.69
2022-10-04T22:54:17.728Z,101319.69
2022-10-04T22:56:44.793Z,101322.34
2022-10-04T22:59:13.515Z,101315.22
2022-10-04T23:01:40.530Z,101318.81
2022-10-04T23:04:14.140Z,101330.38
2022-10-04T23:06:40.989Z,101329.47
2022-10-04T23:09:09.109Z,101336.59
2022-10-04T23:11:35.954Z,101337.53
2022-10-04T23:14:02.803Z,101342.88
2022-10-04T23:16:29.615Z,101328.59
2022-10-04T23:19:02.651Z,101328.59
2022-10-04T23:21:31.761Z,101325.03
2022-10-04T23:24:01.947Z,101319.69
2022-10-04T23:26:36.569Z,101314.34
2022-10-04T23:29:06.385Z,101314.34
2022-10-04T23:31:34.765Z,101304.56
2022-10-04T23:34:01.577Z,101309.00
2022-10-04T23:36:28.581Z,101298.34
2022-10-04T23:38:59.562Z,101305.44
2022-10-04T23:41:26.493Z,101304.56
2022-10-04T23:43:53.245Z,101306.31
2022-10-04T23:46:22.467Z,101294.78
2022-10-04T23:48:49.218Z,101284.09
2022-10-04T23:51:18.739Z,101293.00
2022-10-04T23:53:46.800Z,101297.41
2022-10-04T23:56:23.455Z,101301.00
2022-10-04T23:58:52.390Z,101309.91
